createdAt,value
2022-12-19T00:00:33.452Z,102834.69
2022-12-19T00:03:01.234Z,102833.88
2022-12-19T00:05:29.512Z,102833.78
2022-12-19T00:07:57.691Z,102841.63
2022-12-19T00:10:27.141Z,102835.38
2022-12-19T00:12:54.860Z,102833.31
2022-12-19T00:15:22.704Z,102842.56
2022-12-19T00:17:50.427Z,102843.34
2022-12-19T00:20:19.386Z,102832.47
2022-12-19T00:22:47.398Z,102831.28
2022-12-19T00:25:17.783Z,102837.44
2022-12-19T00:27:47.100Z,102830.28
2022-12-19T00:30:15.404Z,102829.97
2022-12-19T00:32:43.259Z,102833.09
2022-12-19T00:35:11.193Z,102834.19
2022-12-19T00:37:39.051Z,102838.50
2022-12-19T00:40:13.565Z,102843.13
2022-12-19T00:42:41.311Z,102838.41
2022-12-19T00:45:10.086Z,102844.56
2022-12-19T00:47:37.930Z,102854.16
2022-12-19T00:50:06.220Z,102853.59
2022-12-19T00:52:33.886Z,102854.47
2022-12-19T00:55:02.067Z,102846.13
2022-12-19T00:57:32.592Z,102839.63
2022-12-19T01:00:00.672Z,102840.59
2022-12-19T01:02:28.672Z,102833.56
2022-12-19T01:04:56.610Z,102834.69
2022-12-19T01:07:24.511Z,102843.53
2022-12-19T01:09:53.409Z,102821.44
2022-12-19T01:12:40.282Z,102833.75
2022-12-19T01:15:08.336Z,102821.72
2022-12-19T01:17:43.519Z,102836.59
2022-12-19T01:20:15.962Z,102833.06
2022-12-19T01:22:45.208Z,102832.75
2022-12-19T01:25:15.532Z,102832.75
2022-12-19T01:27:43.413Z,102831.19
2022-12-19T01:30:12.206Z,102835.31
2022-12-19T01:32:40.193Z,102840.88
2022-12-19T01:35:13.372Z,102842.34
2022-12-19T01:38:01.511Z,102845.88
2022-12-19T01:40:36.873Z,102843.53
2022-12-19T01:43:05.013Z,102848.50
2022-12-19T01:45:42.197Z,102839.94
2022-12-19T01:48:21.948Z,102856.53
2022-12-19T01:51:01.859Z,102854.78
2022-12-19T01:53:49.010Z,102866.25
2022-12-19T01:56:24.767Z,102872.75
2022-12-19T01:59:05.114Z,102880.19
2022-12-19T02:01:50.934Z,102871.69
2022-12-19T02:04:25.351Z,102872.91
2022-12-19T02:06:56.539Z,102877.41
2022-12-19T02:09:25.736Z,102872.63
2022-12-19T02:11:54.245Z,102870.50
2022-12-19T02:14:22.246Z,102865.28
2022-12-19T02:17:12.523Z,102873.06
2022-12-19T02:19:43.410Z,102868.59
2022-12-19T02:22:27.827Z,102865.03
2022-12-19T02:25:27.196Z,102859.56
2022-12-19T02:28:22.512Z,102860.50
2022-12-19T02:31:17.411Z,102842.47
2022-12-19T02:34:01.911Z,102831.00
2022-12-19T02:36:42.040Z,102838.81
2022-12-19T02:39:27.615Z,102824.00
2022-12-19T02:42:01.256Z,102831.81
2022-12-19T02:44:43.065Z,102837.09
2022-12-19T02:47:12.278Z,102843.16
2022-12-19T02:49:40.710Z,102843.97
2022-12-19T02:52:18.853Z,102846.75
2022-12-19T02:54:50.618Z,102838.69
2022-12-19T02:57:24.049Z,102836.91
2022-12-19T03:00:06.498Z,102834.97
2022-12-19T03:02:38.810Z,102841.38
2022-12-19T03:05:45.188Z,102840.75
2022-12-19T03:08:25.539Z,102836.84
2022-12-19T03:11:05.187Z,102840.91
2022-12-19T03:13:42.102Z,102830.66
2022-12-19T03:16:11.608Z,102832.63
2022-12-19T03:18:40.616Z,102838.53
2022-12-19T03:21:29.724Z,102840.09
2022-12-19T03:23:58.914Z,102839.94
2022-12-19T03:26:32.409Z,102846.72
2022-12-19T03:29:32.482Z,102847.53
2022-12-19T03:32:05.734Z,102844.66
2022-12-19T03:34:47.519Z,102841.03
2022-12-19T03:37:19.404Z,102841.34
2022-12-19T03:39:52.874Z,102823.41
2022-12-19T03:42:43.693Z,102832.09
2022-12-19T03:45:13.969Z,102825.41
2022-12-19T03:47:49.289Z,102833.41
2022-12-19T03:50:17.890Z,102833.31
2022-12-19T03:52:53.429Z,102836.34
2022-12-19T03:55:38.832Z,102831.28
2022-12-19T03:58:12.028Z,102834.19
2022-12-19T04:00:42.690Z,102836.44
2022-12-19T04:03:11.903Z,102824.53
2022-12-19T04:05:42.713Z,102824.28
2022-12-19T04:08:12.232Z,102826.59
2022-12-19T04:10:51.762Z,102827.34
2022-12-19T04:13:30.188Z,102833.59
2022-12-19T04:16:19.931Z,102835.97
2022-12-19T04:18:55.003Z,102842.94
2022-12-19T04:21:32.110Z,102834.91
2022-12-19T04:24:08.140Z,102843.00
2022-12-19T04:26:36.807Z,102841.88
2022-12-19T04:29:06.599Z,102840.25
2022-12-19T04:31:36.143Z,102841.34
2022-12-19T04:34:04.130Z,102833.19
2022-12-19T04:36:32.268Z,102827.41
2022-12-19T04:39:00.103Z,102825.28
2022-12-19T04:41:28.409Z,102837.53
2022-12-19T04:43:59.954Z,102836.09
2022-12-19T04:46:27.879Z,102834.69
2022-12-19T04:48:55.692Z,102828.34
2022-12-19T04:51:23.967Z,102821.25
2022-12-19T04:53:51.970Z,102823.03
2022-12-19T04:56:19.851Z,102822.38
2022-12-19T04:58:47.816Z,102823.88
2022-12-19T05:01:16.102Z,102833.34
2022-12-19T05:03:44.022Z,102826.53
2022-12-19T05:06:15.202Z,102828.53
2022-12-19T05:08:44.261Z,102836.00
2022-12-19T05:11:19.223Z,102843.41
2022-12-19T05:13:48.278Z,102840.78
2022-12-19T05:16:16.335Z,102846.44
2022-12-19T05:18:46.141Z,102845.56
2022-12-19T05:21:14.223Z,102838.09
2022-12-19T05:23:42.477Z,102842.06
2022-12-19T05:26:12.046Z,102841.41
2022-12-19T05:28:40.095Z,102822.00
2022-12-19T05:31:10.730Z,102811.78
2022-12-19T05:33:40.779Z,102796.03
2022-12-19T05:36:10.130Z,102803.91
2022-12-19T05:38:37.949Z,102805.53
2022-12-19T05:41:18.466Z,102796.78
2022-12-19T05:43:50.927Z,102810.72
2022-12-19T05:46:19.468Z,102821.50
2022-12-19T05:48:47.685Z,102830.25
2022-12-19T05:51:15.591Z,102825.53
2022-12-19T05:53:43.407Z,102832.16
2022-12-19T05:56:22.603Z,102836.41
2022-12-19T05:58:50.715Z,102831.56
2022-12-19T06:01:24.138Z,102837.88
2022-12-19T06:03:52.533Z,102846.41
2022-12-19T06:06:25.652Z,102841.16
2022-12-19T06:08:58.013Z,102833.16
2022-12-19T06:11:27.179Z,102842.06
2022-12-19T06:13:54.959Z,102841.97
2022-12-19T06:16:23.779Z,102850.69
2022-12-19T06:18:51.642Z,102849.97
2022-12-19T06:21:21.955Z,102855.97
2022-12-19T06:23:50.066Z,102854.34
2022-12-19T06:26:20.663Z,102865.59
2022-12-19T06:28:50.211Z,102852.75
2022-12-19T06:31:19.776Z,102855.19
2022-12-19T06:33:47.707Z,102854.28
2022-12-19T06:36:28.579Z,102850.06
2022-12-19T06:38:57.997Z,102845.56
2022-12-19T06:41:44.760Z,102840.94
2022-12-19T06:44:14.514Z,102853.44
2022-12-19T06:46:42.846Z,102853.16
2022-12-19T06:49:14.274Z,102850.63
2022-12-19T06:51:42.916Z,102839.78
2022-12-19T06:54:11.940Z,102841.81
2022-12-19T06:56:41.748Z,102842.25
2022-12-19T06:59:13.121Z,102846.38
2022-12-19T07:01:52.764Z,102862.16
2022-12-19T07:04:49.105Z,102868.31
2022-12-19T07:07:17.282Z,102866.19
2022-12-19T07:09:45.433Z,102861.06
2022-12-19T07:12:13.114Z,102872.31
2022-12-19T07:14:41.071Z,102873.47
2022-12-19T07:17:09.054Z,102880.66
2022-12-19T07:19:37.996Z,102885.47
2022-12-19T07:22:06.855Z,102867.81
2022-12-19T07:24:36.178Z,102872.44
2022-12-19T07:27:09.325Z,102870.78
2022-12-19T07:29:37.213Z,102860.00
2022-12-19T07:32:05.383Z,102865.59
2022-12-19T07:34:33.372Z,102867.19
2022-12-19T07:37:01.325Z,102867.94
2022-12-19T07:39:29.188Z,102870.19
2022-12-19T07:41:57.116Z,102859.94
2022-12-19T07:44:34.144Z,102858.22
2022-12-19T07:47:02.129Z,102857.28
2022-12-19T07:49:29.948Z,102853.84
2022-12-19T07:51:58.170Z,102861.88
2022-12-19T07:54:26.128Z,102863.56
2022-12-19T07:56:54.108Z,102867.19
2022-12-19T07:59:27.323Z,102870.59
2022-12-19T08:01:57.742Z,102869.50
2022-12-19T08:04:27.077Z,102859.28
2022-12-19T08:06:54.924Z,102865.41
2022-12-19T08:09:22.946Z,102867.09
2022-12-19T08:11:51.057Z,102867.19
2022-12-19T08:14:19.343Z,102874.28
2022-12-19T08:17:18.747Z,102876.78
2022-12-19T08:19:35.680Z,102879.53
2022-12-19T08:22:03.792Z,102883.16
2022-12-19T08:24:31.595Z,102877.50
2022-12-19T08:26:59.863Z,102887.69
2022-12-19T08:29:27.970Z,102873.84
2022-12-19T08:31:55.643Z,102875.91
2022-12-19T08:34:23.631Z,102878.84
2022-12-19T08:36:51.532Z,102878.00
2022-12-19T08:39:19.611Z,102875.84
2022-12-19T08:41:47.595Z,102867.94
2022-12-19T08:44:16.661Z,102862.56
2022-12-19T08:46:50.066Z,102858.25
2022-12-19T08:49:19.896Z,102856.72
2022-12-19T08:51:48.383Z,102862.75
2022-12-19T08:54:17.058Z,102859.34
2022-12-19T08:56:46.326Z,102847.06
2022-12-19T08:59:25.980Z,102853.34
2022-12-19T09:02:00.859Z,102855.06
2022-12-19T09:05:58.786Z,102850.84
2022-12-19T09:07:17.191Z,102849.72
2022-12-19T09:09:45.770Z,102864.69
2022-12-19T09:12:14.878Z,102870.03
2022-12-19T09:14:44.389Z,102862.00
2022-12-19T09:17:12.435Z,102868.41
2022-12-19T09:19:40.435Z,102879.88
2022-12-19T09:22:10.955Z,102856.13
2022-12-19T09:24:39.193Z,102876.25
2022-12-19T09:27:07.608Z,102867.50
2022-12-19T09:29:36.083Z,102871.00
2022-12-19T09:32:04.280Z,102871.97
2022-12-19T09:34:37.668Z,102877.03
2022-12-19T09:37:10.357Z,102884.13
2022-12-19T09:39:48.956Z,102877.09
2022-12-19T09:42:26.430Z,102869.34
2022-12-19T09:45:00.099Z,102870.09
2022-12-19T09:47:31.535Z,102877.25
2022-12-19T09:50:01.037Z,102869.31
2022-12-19T09:52:43.542Z,102868.53
2022-12-19T09:55:20.223Z,102865.06
2022-12-19T09:57:55.968Z,102863.31
2022-12-19T10:00:24.775Z,102854.47
2022-12-19T10:03:24.043Z,102857.03
2022-12-19T10:07:07.740Z,102858.88
2022-12-19T10:09:17.077Z,102861.53
2022-12-19T10:12:39.411Z,102858.00
2022-12-19T10:15:01.296Z,102856.25
2022-12-19T10:18:12.857Z,102852.75
2022-12-19T10:20:46.223Z,102857.22
2022-12-19T10:23:45.143Z,102865.03
2022-12-19T10:26:19.552Z,102869.44
2022-12-19T10:28:50.592Z,102863.28
2022-12-19T10:31:30.840Z,102856.25
2022-12-19T10:34:08.483Z,102853.66
2022-12-19T10:37:19.397Z,102841.28
2022-12-19T10:39:53.977Z,102840.47
2022-12-19T10:42:44.598Z,102835.19
2022-12-19T10:45:21.683Z,102827.13
2022-12-19T10:47:56.577Z,102842.97
2022-12-19T10:50:29.857Z,102834.16
2022-12-19T10:53:04.401Z,102823.75
2022-12-19T10:55:44.149Z,102820.16
2022-12-19T10:58:38.130Z,102824.59
2022-12-19T11:01:42.173Z,102816.72
2022-12-19T11:04:26.789Z,102819.38
2022-12-19T11:07:05.759Z,102803.56
2022-12-19T11:09:42.609Z,102806.16
2022-12-19T11:16:18.280Z,102811.50
2022-12-19T11:17:50.213Z,102818.53
2022-12-19T11:21:09.907Z,102809.69
2022-12-19T11:29:25.336Z,102798.28
2022-12-19T11:29:33.187Z,102785.09
2022-12-19T11:30:49.023Z,102783.28
2022-12-19T11:33:18.958Z,102780.66
2022-12-19T11:35:55.519Z,102773.63
2022-12-19T11:38:37.709Z,102776.28
2022-12-19T11:41:17.340Z,102765.69
2022-12-19T11:44:03.479Z,102767.50
2022-12-19T11:46:43.299Z,102767.47
2022-12-19T11:49:29.011Z,102757.78
2022-12-19T11:52:06.920Z,102763.00
2022-12-19T11:54:50.691Z,102760.38
2022-12-19T11:57:20.642Z,102753.34
2022-12-19T11:59:53.663Z,102755.13
2022-12-19T12:02:45.590Z,102748.97
2022-12-19T12:05:49.229Z,102739.25
2022-12-19T12:10:30.290Z,102743.69
2022-12-19T12:17:03.701Z,102744.56
2022-12-19T12:28:05.869Z,102739.22
2022-12-19T12:31:00.904Z,102735.72
2022-12-19T12:31:05.950Z,102726.00
2022-12-19T12:31:49.678Z,102726.91
2022-12-19T12:31:52.736Z,102720.66
2022-12-19T12:31:57.580Z,102723.38
2022-12-19T12:35:56.311Z,102718.09
2022-12-19T12:39:33.847Z,102719.91
2022-12-19T12:42:30.173Z,102712.78
2022-12-19T12:45:00.662Z,102716.34
2022-12-19T12:47:30.461Z,102702.25
2022-12-19T12:50:04.393Z,102711.94
2022-12-19T12:52:39.861Z,102704.94
2022-12-19T12:55:31.745Z,102704.03
2022-12-19T12:58:00.645Z,102699.56
2022-12-19T13:00:31.101Z,102699.56
2022-12-19T13:03:12.924Z,102695.09
2022-12-19T13:05:44.066Z,102708.38
2022-12-19T13:08:26.085Z,102691.63
2022-12-19T13:11:33.539Z,102695.06
2022-12-19T13:14:02.200Z,102697.63
2022-12-19T13:16:45.300Z,102698.59
2022-12-19T13:19:27.991Z,102699.50
2022-12-19T13:22:09.091Z,102695.13
2022-12-19T13:24:43.036Z,102693.44
2022-12-19T13:27:29.098Z,102687.16
2022-12-19T13:30:14.517Z,102684.50
2022-12-19T13:32:42.426Z,102692.41
2022-12-19T13:36:38.624Z,102686.34
2022-12-19T13:39:56.903Z,102684.59
2022-12-19T13:41:47.993Z,102683.78
2022-12-19T13:44:22.060Z,102685.50
2022-12-19T13:46:50.601Z,102686.38
2022-12-19T13:49:34.343Z,102691.63
2022-12-19T13:52:05.314Z,102694.22
2022-12-19T13:54:53.656Z,102696.09
2022-12-19T13:57:26.327Z,102699.63
2022-12-19T13:59:59.322Z,102690.84
2022-12-19T14:02:44.335Z,102690.75
2022-12-19T14:06:16.663Z,102686.41
2022-12-19T14:08:27.896Z,102676.59
2022-12-19T14:11:34.885Z,102681.94
2022-12-19T14:14:23.619Z,102695.19
2022-12-19T14:17:05.676Z,102695.09
2022-12-19T14:19:42.198Z,102692.47
2022-12-19T14:22:20.757Z,102693.44
2022-12-19T14:25:07.028Z,102686.38
2022-12-19T14:28:19.529Z,102680.94
2022-12-19T14:31:02.860Z,102677.44
2022-12-19T14:33:46.161Z,102680.16
2022-12-19T14:36:29.745Z,102675.75
2022-12-19T14:39:26.850Z,102691.63
2022-12-19T14:42:09.209Z,102689.88
2022-12-19T14:53:10.790Z,102691.69
2022-12-19T14:54:01.594Z,102682.91
2022-12-19T14:54:24.008Z,102693.47
2022-12-19T14:54:30.699Z,102692.59
2022-12-19T14:59:05.867Z,102697.88
2022-12-19T15:01:36.710Z,102688.19
2022-12-19T15:04:52.415Z,102689.91
2022-12-19T15:07:08.731Z,102699.66
2022-12-19T15:10:58.552Z,102688.16
2022-12-19T15:14:49.013Z,102686.38
2022-12-19T15:16:24.900Z,102682.91
2022-12-19T15:18:57.307Z,102690.81
2022-12-19T15:21:26.024Z,102691.69
2022-12-19T15:23:54.127Z,102689.09
2022-12-19T15:26:35.265Z,102689.94
2022-12-19T15:29:07.060Z,102694.38
2022-12-19T15:31:43.747Z,102693.47
2022-12-19T15:34:34.721Z,102695.22
2022-12-19T15:37:15.341Z,102699.66
2022-12-19T15:39:44.673Z,102704.94
2022-12-19T15:42:21.758Z,102693.47
2022-12-19T15:44:51.473Z,102704.06
2022-12-19T15:47:24.321Z,102694.38
2022-12-19T15:49:52.367Z,102697.91
2022-12-19T15:52:21.391Z,102693.47
2022-12-19T15:54:50.509Z,102672.34
2022-12-19T15:57:29.491Z,102686.44
2022-12-19T16:00:01.857Z,102674.09
2022-12-19T16:03:22.249Z,102665.31
2022-12-19T16:05:26.144Z,102670.59
2022-12-19T16:07:54.137Z,102681.16
2022-12-19T16:10:22.391Z,102678.50
2022-12-19T16:12:55.483Z,102684.69
2022-12-19T16:15:31.874Z,102682.91
2022-12-19T16:18:04.123Z,102678.53
2022-12-19T16:20:40.384Z,102680.28
2022-12-19T16:23:09.000Z,102684.69
2022-12-19T16:25:50.667Z,102681.16
2022-12-19T16:28:27.012Z,102680.28
2022-12-19T16:30:59.359Z,102689.09
2022-12-19T16:33:30.627Z,102682.03
2022-12-19T16:36:07.188Z,102674.09
2022-12-19T16:38:36.629Z,102674.06
2022-12-19T16:41:04.954Z,102666.19
2022-12-19T16:43:37.981Z,102680.28
2022-12-19T16:46:07.769Z,102676.75
2022-12-19T16:48:36.386Z,102678.53
2022-12-19T16:51:04.786Z,102682.03
2022-12-19T16:53:36.859Z,102686.44
2022-12-19T16:56:05.902Z,102683.78
2022-12-19T16:58:39.652Z,102682.03
2022-12-19T17:01:10.972Z,102676.75
2022-12-19T17:03:42.297Z,102682.91
2022-12-19T17:06:17.429Z,102682.03
2022-12-19T17:08:46.112Z,102682.94
2022-12-19T17:11:26.379Z,102684.66
2022-12-19T17:14:08.598Z,102680.25
2022-12-19T17:16:38.593Z,102689.06
2022-12-19T17:19:07.009Z,102681.16
2022-12-19T17:21:35.192Z,102682.94
2022-12-19T17:24:06.402Z,102681.16
2022-12-19T17:26:34.494Z,102681.16
2022-12-19T17:29:02.354Z,102683.78
2022-12-19T17:31:38.204Z,102688.19
2022-12-19T17:34:28.489Z,102691.72
2022-12-19T17:36:58.110Z,102693.47
2022-12-19T17:39:29.418Z,102689.94
2022-12-19T17:42:07.099Z,102684.69
2022-12-19T17:44:35.545Z,102692.59
2022-12-19T17:47:04.727Z,102696.13
2022-12-19T17:49:33.355Z,102701.38
2022-12-19T17:52:01.047Z,102703.19
2022-12-19T17:54:30.879Z,102694.34
2022-12-19T17:56:58.758Z,102697.00
2022-12-19T17:59:26.828Z,102685.53
2022-12-19T18:01:55.309Z,102688.19
2022-12-19T18:04:24.258Z,102682.94
2022-12-19T18:06:52.775Z,102680.28
2022-12-19T18:09:23.300Z,102684.69
2022-12-19T18:11:53.036Z,102684.66
2022-12-19T18:14:21.445Z,102682.06
2022-12-19T18:16:51.208Z,102678.47
2022-12-19T18:19:21.554Z,102682.03
2022-12-19T18:21:49.677Z,102680.25
2022-12-19T18:24:17.791Z,102682.03
2022-12-19T18:26:45.752Z,102682.03
2022-12-19T18:29:14.285Z,102691.72
2022-12-19T18:31:50.100Z,102692.56
2022-12-19T18:34:23.618Z,102691.72
2022-12-19T18:36:52.771Z,102689.94
2022-12-19T18:39:31.989Z,102687.31
2022-12-19T18:42:00.599Z,102697.00
2022-12-19T18:44:28.857Z,102689.94
2022-12-19T18:46:56.796Z,102689.09
2022-12-19T18:49:24.697Z,102689.94
2022-12-19T18:51:52.991Z,102686.44
2022-12-19T18:54:22.352Z,102684.66
2022-12-19T18:56:53.585Z,102679.38
2022-12-19T18:59:21.469Z,102676.75
2022-12-19T19:01:49.713Z,102678.50
2022-12-19T19:04:18.493Z,102666.22
2022-12-19T19:06:51.720Z,102674.97
2022-12-19T19:09:21.478Z,102677.59
2022-12-19T19:12:06.365Z,102675.00
2022-12-19T19:14:34.263Z,102681.13
2022-12-19T19:17:23.564Z,102674.97
2022-12-19T19:19:51.531Z,102675.88
2022-12-19T19:22:19.755Z,102679.34
2022-12-19T19:24:47.645Z,102682.84
2022-12-19T19:27:16.173Z,102677.59
2022-12-19T19:29:43.753Z,102678.47
2022-12-19T19:32:12.048Z,102671.41
2022-12-19T19:34:41.133Z,102676.72
2022-12-19T19:37:13.683Z,102674.94
2022-12-19T19:39:42.276Z,102674.09
2022-12-19T19:42:10.663Z,102667.91
2022-12-19T19:44:38.647Z,102667.03
2022-12-19T19:47:06.824Z,102657.38
2022-12-19T19:49:37.807Z,102659.97
2022-12-19T19:52:08.566Z,102659.06
2022-12-19T19:54:36.893Z,102664.41
2022-12-19T19:57:05.001Z,102659.09
2022-12-19T19:59:33.257Z,102661.72
2022-12-19T20:02:01.671Z,102653.81
2022-12-19T20:04:30.166Z,102659.13
2022-12-19T20:06:58.401Z,102650.34
2022-12-19T20:09:29.084Z,102652.97
2022-12-19T20:11:57.482Z,102660.00
2022-12-19T20:14:29.929Z,102655.63
2022-12-19T20:16:58.332Z,102644.16
2022-12-19T20:19:26.799Z,102645.94
2022-12-19T20:21:55.476Z,102645.94
2022-12-19T20:24:23.880Z,102638.91
2022-12-19T20:26:51.953Z,102643.31
2022-12-19T20:29:20.981Z,102644.16
2022-12-19T20:31:49.412Z,102637.13
2022-12-19T20:34:20.048Z,102641.53
2022-12-19T20:37:02.667Z,102628.31
2022-12-19T20:39:32.269Z,102625.66
2022-12-19T20:42:00.779Z,102637.13
2022-12-19T20:44:29.143Z,102627.44
2022-12-19T20:46:57.984Z,102634.47
2022-12-19T20:49:26.019Z,102638.00
2022-12-19T20:51:55.065Z,102635.38
2022-12-19T20:54:24.570Z,102638.03
2022-12-19T20:56:52.961Z,102631.88
2022-12-19T20:59:21.422Z,102628.38
2022-12-19T21:01:49.893Z,102617.78
2022-12-19T21:04:18.536Z,102631.00
2022-12-19T21:06:46.526Z,102632.75
2022-12-19T21:09:15.415Z,102623.91
2022-12-19T21:11:43.850Z,102625.69
2022-12-19T21:14:12.434Z,102620.44
2022-12-19T21:16:40.689Z,102620.44
2022-12-19T21:19:11.612Z,102625.72
2022-12-19T21:21:39.844Z,102628.34
2022-12-19T21:24:08.035Z,102622.19
2022-12-19T21:26:36.089Z,102623.06
2022-12-19T21:29:05.176Z,102615.13
2022-12-19T21:31:33.606Z,102615.13
2022-12-19T21:34:02.571Z,102622.16
2022-12-19T21:36:31.276Z,102624.81
2022-12-19T21:39:02.011Z,102629.25
2022-12-19T21:41:30.619Z,102624.81
2022-12-19T21:44:00.719Z,102623.94
2022-12-19T21:46:30.941Z,102620.41
2022-12-19T21:49:00.102Z,102625.69
2022-12-19T21:51:30.793Z,102623.94
2022-12-19T21:54:01.429Z,102619.56
2022-12-19T21:56:39.125Z,102624.81
2022-12-19T21:59:12.468Z,102616.91
2022-12-19T22:01:41.900Z,102624.84
2022-12-19T22:04:21.032Z,102612.50
2022-12-19T22:06:50.575Z,102616.00
2022-12-19T22:09:21.489Z,102613.38
2022-12-19T22:11:50.149Z,102620.41
2022-12-19T22:14:18.455Z,102615.16
2022-12-19T22:16:46.736Z,102609.88
2022-12-19T22:19:16.992Z,102611.63
2022-12-19T22:21:46.714Z,102609.88
2022-12-19T22:24:16.230Z,102616.03
2022-12-19T22:26:45.311Z,102611.66
2022-12-19T22:29:16.812Z,102613.38
2022-12-19T22:31:46.029Z,102601.09
2022-12-19T22:34:20.315Z,102599.28
2022-12-19T22:36:49.900Z,102601.06
2022-12-19T22:39:20.271Z,102595.78
2022-12-19T22:41:48.463Z,102597.56
2022-12-19T22:44:26.700Z,102587.88
2022-12-19T22:46:55.591Z,102595.81
2022-12-19T22:49:24.033Z,102587.00
2022-12-19T22:51:52.394Z,102583.47
2022-12-19T22:54:20.555Z,102589.56
2022-12-19T22:56:51.441Z,102580.72
2022-12-19T22:59:19.548Z,102581.53
2022-12-19T23:01:48.186Z,102593.81
2022-12-19T23:04:19.245Z,102587.75
2022-12-19T23:06:47.450Z,102576.16
2022-12-19T23:09:19.204Z,102572.75
2022-12-19T23:11:49.474Z,102582.44
2022-12-19T23:14:20.885Z,102577.16
2022-12-19T23:16:49.467Z,102582.44
2022-12-19T23:19:17.786Z,102578.94
2022-12-19T23:21:46.255Z,102583.34
2022-12-19T23:24:14.414Z,102580.63
2022-12-19T23:26:42.872Z,102576.28
2022-12-19T23:29:13.717Z,102569.25
2022-12-19T23:31:44.021Z,102572.84
2022-12-19T23:34:12.926Z,102576.44
2022-12-19T23:39:35.860Z,102568.53
2022-12-19T23:42:04.168Z,102567.56
2022-12-19T23:44:32.204Z,102571.09
2022-12-19T23:47:03.385Z,102569.34
2022-12-19T23:49:33.497Z,102561.41
2022-12-19T23:52:02.027Z,102570.19
2022-12-19T23:54:30.002Z,102563.97
2022-12-19T23:56:58.642Z,102563.13
2022-12-19T23:59:26.879Z,102565.75
